sensor_id;sensor_type;location;lat;lon;timestamp;P1;durP1;ratioP1;P2;durP2;ratioP2
1366;SDS011;16877;48.810;9.282;2022-08-03T00:00:54;3.67;;;3.27;;
1366;SDS011;16877;48.810;9.282;2022-08-03T00:03:20;4.20;;;2.97;;
1366;SDS011;16877;48.810;9.282;2022-08-03T00:05:48;4.70;;;2.80;;
1366;SDS011;16877;48.810;9.282;2022-08-03T00:08:16;3.90;;;3.20;;
1366;SDS011;16877;48.810;9.282;2022-08-03T00:10:42;4.10;;;3.70;;
1366;SDS011;16877;48.810;9.282;2022-08-03T00:13:09;3.90;;;3.10;;
1366;SDS011;16877;48.810;9.282;2022-08-03T00:15:37;3.90;;;3.10;;
1366;SDS011;16877;48.810;9.282;2022-08-03T00:18:04;3.40;;;3.10;;
1366;SDS011;16877;48.810;9.282;2022-08-03T00:20:31;4.00;;;3.10;;
1366;SDS011;16877;48.810;9.282;2022-08-03T00:22:59;3.57;;;3.13;;
1366;SDS011;16877;48.810;9.282;2022-08-03T00:25:26;3.90;;;3.50;;
1366;SDS011;16877;48.810;9.282;2022-08-03T00:27:53;3.87;;;3.20;;
1366;SDS011;16877;48.810;9.282;2022-08-03T00:30:19;5.00;;;3.33;;
1366;SDS011;16877;48.810;9.282;2022-08-03T00:32:46;3.97;;;2.90;;
1366;SDS011;16877;48.810;9.282;2022-08-03T00:35:13;3.60;;;3.03;;
1366;SDS011;16877;48.810;9.282;2022-08-03T00:37:40;4.33;;;3.30;;
1366;SDS011;16877;48.810;9.282;2022-08-03T00:40:09;4.50;;;3.20;;
1366;SDS011;16877;48.810;9.282;2022-08-03T00:42:44;3.70;;;2.97;;
1366;SDS011;16877;48.810;9.282;2022-08-03T00:45:15;3.57;;;3.00;;
1366;SDS011;16877;48.810;9.282;2022-08-03T00:47:42;4.07;;;3.00;;
1366;SDS011;16877;48.810;9.282;2022-08-03T00:50:09;4.60;;;3.27;;
1366;SDS011;16877;48.810;9.282;2022-08-03T00:52:36;3.97;;;2.77;;
1366;SDS011;16877;48.810;9.282;2022-08-03T00:55:04;4.13;;;3.40;;
1366;SDS011;16877;48.810;9.282;2022-08-03T00:57:32;3.93;;;2.70;;
1366;SDS011;16877;48.810;9.282;2022-08-03T00:59:59;3.53;;;3.20;;
1366;SDS011;16877;48.810;9.282;2022-08-03T01:02:26;3.53;;;3.23;;
1366;SDS011;16877;48.810;9.282;2022-08-03T01:04:53;4.00;;;3.10;;
1366;SDS011;16877;48.810;9.282;2022-08-03T01:07:20;4.63;;;2.90;;
1366;SDS011;16877;48.810;9.282;2022-08-03T01:09:57;3.60;;;3.27;;
1366;SDS011;16877;48.810;9.282;2022-08-03T01:12:31;4.00;;;3.60;;
1366;SDS011;16877;48.810;9.282;2022-08-03T01:15:06;3.60;;;2.97;;
1366;SDS011;16877;48.810;9.282;2022-08-03T01:17:39;8.70;;;3.93;;
1366;SDS011;16877;48.810;9.282;2022-08-03T01:20:13;3.47;;;3.10;;
1366;SDS011;16877;48.810;9.282;2022-08-03T01:25:48;4.17;;;3.63;;
1366;SDS011;16877;48.810;9.282;2022-08-03T01:28:32;3.20;;;2.90;;
1366;SDS011;16877;48.810;9.282;2022-08-03T01:31:17;3.47;;;3.07;;
1366;SDS011;16877;48.810;9.282;2022-08-03T01:33:50;4.17;;;2.93;;
1366;SDS011;16877;48.810;9.282;2022-08-03T01:36:21;3.50;;;2.77;;
1366;SDS011;16877;48.810;9.282;2022-08-03T01:38:52;4.50;;;3.00;;
1366;SDS011;16877;48.810;9.282;2022-08-03T01:41:21;4.00;;;3.10;;
1366;SDS011;16877;48.810;9.282;2022-08-03T01:43:54;3.60;;;3.10;;
1366;SDS011;16877;48.810;9.282;2022-08-03T01:46:26;3.17;;;2.87;;
1366;SDS011;16877;48.810;9.282;2022-08-03T01:48:54;3.10;;;2.63;;
1366;SDS011;16877;48.810;9.282;2022-08-03T01:51:23;3.57;;;2.90;;
1366;SDS011;16877;48.810;9.282;2022-08-03T01:53:50;4.10;;;3.70;;
1366;SDS011;16877;48.810;9.282;2022-08-03T01:56:19;6.63;;;3.40;;
1366;SDS011;16877;48.810;9.282;2022-08-03T01:58:49;4.90;;;4.17;;
1366;SDS011;16877;48.810;9.282;2022-08-03T02:01:17;4.33;;;3.90;;
1366;SDS011;16877;48.810;9.282;2022-08-03T02:03:48;4.23;;;3.17;;
1366;SDS011;16877;48.810;9.282;2022-08-03T02:06:16;3.83;;;2.93;;
1366;SDS011;16877;48.810;9.282;2022-08-03T02:08:45;4.07;;;3.53;;
1366;SDS011;16877;48.810;9.282;2022-08-03T02:11:13;4.87;;;3.33;;
1366;SDS011;16877;48.810;9.282;2022-08-03T02:13:40;3.40;;;3.10;;
1366;SDS011;16877;48.810;9.282;2022-08-03T02:16:08;8.50;;;3.97;;
1366;SDS011;16877;48.810;9.282;2022-08-03T02:18:36;3.43;;;3.10;;
1366;SDS011;16877;48.810;9.282;2022-08-03T02:21:06;4.33;;;3.30;;
1366;SDS011;16877;48.810;9.282;2022-08-03T02:23:35;4.20;;;3.77;;
1366;SDS011;16877;48.810;9.282;2022-08-03T02:26:03;3.77;;;3.37;;
1366;SDS011;16877;48.810;9.282;2022-08-03T02:28:35;3.70;;;3.20;;
1366;SDS011;16877;48.810;9.282;2022-08-03T02:31:06;4.47;;;3.50;;
1366;SDS011;16877;48.810;9.282;2022-08-03T02:33:37;3.73;;;3.30;;
1366;SDS011;16877;48.810;9.282;2022-08-03T02:36:08;3.50;;;2.97;;
1366;SDS011;16877;48.810;9.282;2022-08-03T02:38:40;3.27;;;2.97;;
1366;SDS011;16877;48.810;9.282;2022-08-03T02:41:11;4.37;;;3.03;;
1366;SDS011;16877;48.810;9.282;2022-08-03T02:43:41;3.50;;;3.20;;
1366;SDS011;16877;48.810;9.282;2022-08-03T02:46:10;3.53;;;3.03;;
1366;SDS011;16877;48.810;9.282;2022-08-03T02:48:39;5.20;;;3.13;;
1366;SDS011;16877;48.810;9.282;2022-08-03T02:51:09;4.10;;;3.20;;
1366;SDS011;16877;48.810;9.282;2022-08-03T02:53:36;6.07;;;3.10;;
1366;SDS011;16877;48.810;9.282;2022-08-03T02:56:05;3.57;;;3.23;;
1366;SDS011;16877;48.810;9.282;2022-08-03T02:58:33;3.20;;;2.87;;
1366;SDS011;16877;48.810;9.282;2022-08-03T03:01:02;3.20;;;2.90;;
1366;SDS011;16877;48.810;9.282;2022-08-03T03:03:29;3.17;;;2.77;;
1366;SDS011;16877;48.810;9.282;2022-08-03T03:05:56;4.20;;;3.50;;
1366;SDS011;16877;48.810;9.282;2022-08-03T03:08:24;5.33;;;3.40;;
1366;SDS011;16877;48.810;9.282;2022-08-03T03:10:52;3.53;;;2.80;;
1366;SDS011;16877;48.810;9.282;2022-08-03T03:13:20;3.87;;;3.57;;
1366;SDS011;16877;48.810;9.282;2022-08-03T03:15:48;3.47;;;2.97;;
1366;SDS011;16877;48.810;9.282;2022-08-03T03:18:15;3.50;;;3.20;;
1366;SDS011;16877;48.810;9.282;2022-08-03T03:20:43;4.80;;;3.37;;
1366;SDS011;16877;48.810;9.282;2022-08-03T03:23:10;5.77;;;3.13;;
1366;SDS011;16877;48.810;9.282;2022-08-03T03:25:39;4.73;;;3.20;;
1366;SDS011;16877;48.810;9.282;2022-08-03T03:28:07;4.40;;;3.07;;
1366;SDS011;16877;48.810;9.282;2022-08-03T03:30:35;4.60;;;3.40;;
1366;SDS011;16877;48.810;9.282;2022-08-03T03:33:03;4.60;;;3.17;;
1366;SDS011;16877;48.810;9.282;2022-08-03T03:35:29;3.33;;;3.03;;
1366;SDS011;16877;48.810;9.282;2022-08-03T03:37:57;3.37;;;3.07;;
1366;SDS011;16877;48.810;9.282;2022-08-03T03:40:24;3.40;;;2.83;;
1366;SDS011;16877;48.810;9.282;2022-08-03T03:42:52;4.00;;;3.40;;
1366;SDS011;16877;48.810;9.282;2022-08-03T03:45:19;5.03;;;3.97;;
1366;SDS011;16877;48.810;9.282;2022-08-03T03:47:47;5.50;;;3.57;;
1366;SDS011;16877;48.810;9.282;2022-08-03T03:50:14;3.73;;;3.43;;
1366;SDS011;16877;48.810;9.282;2022-08-03T03:52:42;4.30;;;3.30;;
1366;SDS011;16877;48.810;9.282;2022-08-03T03:55:09;4.63;;;3.90;;
1366;SDS011;16877;48.810;9.282;2022-08-03T03:57:40;7.03;;;3.53;;
1366;SDS011;16877;48.810;9.282;2022-08-03T04:00:08;4.20;;;3.10;;
1366;SDS011;16877;48.810;9.282;2022-08-03T04:02:37;4.30;;;3.80;;
1366;SDS011;16877;48.810;9.282;2022-08-03T04:05:04;4.63;;;3.63;;
1366;SDS011;16877;48.810;9.282;2022-08-03T04:07:49;5.37;;;3.90;;
1366;SDS011;16877;48.810;9.282;2022-08-03T04:10:40;4.40;;;3.73;;
1366;SDS011;16877;48.810;9.282;2022-08-03T04:13:23;4.30;;;3.50;;
1366;SDS011;16877;48.810;9.282;2022-08-03T04:15:56;3.70;;;3.27;;
1366;SDS011;16877;48.810;9.282;2022-08-03T04:18:24;4.90;;;4.17;;
1366;SDS011;16877;48.810;9.282;2022-08-03T04:20:53;5.77;;;3.90;;
1366;SDS011;16877;48.810;9.282;2022-08-03T04:23:23;4.30;;;3.43;;
1366;SDS011;16877;48.810;9.282;2022-08-03T04:25:52;4.80;;;3.50;;
1366;SDS011;16877;48.810;9.282;2022-08-03T04:28:21;5.00;;;3.63;;
1366;SDS011;16877;48.810;9.282;2022-08-03T04:30:49;4.00;;;3.57;;
1366;SDS011;16877;48.810;9.282;2022-08-03T04:33:19;4.30;;;3.90;;
1366;SDS011;16877;48.810;9.282;2022-08-03T04:35:47;4.07;;;3.20;;
1366;SDS011;16877;48.810;9.282;2022-08-03T04:38:14;3.90;;;3.37;;
1366;SDS011;16877;48.810;9.282;2022-08-03T04:40:44;4.00;;;3.60;;
1366;SDS011;16877;48.810;9.282;2022-08-03T04:43:13;5.23;;;3.80;;
1366;SDS011;16877;48.810;9.282;2022-08-03T04:45:41;3.93;;;3.13;;
1366;SDS011;16877;48.810;9.282;2022-08-03T04:48:08;3.97;;;3.27;;
1366;SDS011;16877;48.810;9.282;2022-08-03T04:50:36;3.90;;;2.97;;
1366;SDS011;16877;48.810;9.282;2022-08-03T04:53:04;3.13;;;2.63;;
1366;SDS011;16877;48.810;9.282;2022-08-03T04:55:31;4.40;;;3.23;;
1366;SDS011;16877;48.810;9.282;2022-08-03T04:58:01;4.37;;;2.80;;
1366;SDS011;16877;48.810;9.282;2022-08-03T05:00:29;7.23;;;3.17;;
1366;SDS011;16877;48.810;9.282;2022-08-03T05:02:56;4.33;;;3.17;;
1366;SDS011;16877;48.810;9.282;2022-08-03T05:05:23;4.20;;;3.43;;
1366;SDS011;16877;48.810;9.282;2022-08-03T05:07:51;3.90;;;3.40;;
1366;SDS011;16877;48.810;9.282;2022-08-03T05:10:18;3.60;;;3.07;;
1366;SDS011;16877;48.810;9.282;2022-08-03T05:12:45;5.90;;;3.10;;
1366;SDS011;16877;48.810;9.282;2022-08-03T05:15:15;5.63;;;3.60;;
1366;SDS011;16877;48.810;9.282;2022-08-03T05:17:42;3.67;;;3.33;;
1366;SDS011;16877;48.810;9.282;2022-08-03T05:20:09;3.57;;;3.00;;
1366;SDS011;16877;48.810;9.282;2022-08-03T05:22:36;4.37;;;3.53;;
1366;SDS011;16877;48.810;9.282;2022-08-03T05:25:05;5.17;;;3.73;;
1366;SDS011;16877;48.810;9.282;2022-08-03T05:27:32;5.27;;;3.23;;
1366;SDS011;16877;48.810;9.282;2022-08-03T05:29:59;5.73;;;3.80;;
1366;SDS011;16877;48.810;9.282;2022-08-03T05:32:25;5.40;;;4.37;;
1366;SDS011;16877;48.810;9.282;2022-08-03T05:34:52;3.53;;;3.17;;
1366;SDS011;16877;48.810;9.282;2022-08-03T05:37:19;4.13;;;3.23;;
1366;SDS011;16877;48.810;9.282;2022-08-03T05:39:45;3.40;;;2.90;;
1366;SDS011;16877;48.810;9.282;2022-08-03T05:42:15;5.60;;;3.40;;
1366;SDS011;16877;48.810;9.282;2022-08-03T05:44:41;3.87;;;3.30;;
1366;SDS011;16877;48.810;9.282;2022-08-03T05:47:08;3.67;;;3.30;;
1366;SDS011;16877;48.810;9.282;2022-08-03T05:49:35;5.30;;;3.10;;
1366;SDS011;16877;48.810;9.282;2022-08-03T05:52:01;4.00;;;2.90;;
1366;SDS011;16877;48.810;9.282;2022-08-03T05:54:29;6.20;;;3.23;;
1366;SDS011;16877;48.810;9.282;2022-08-03T05:56:55;4.33;;;3.60;;
1366;SDS011;16877;48.810;9.282;2022-08-03T05:59:23;3.97;;;3.10;;
1366;SDS011;16877;48.810;9.282;2022-08-03T06:01:50;4.70;;;3.43;;
1366;SDS011;16877;48.810;9.282;2022-08-03T06:04:17;4.50;;;3.63;;
1366;SDS011;16877;48.810;9.282;2022-08-03T06:06:43;7.03;;;3.30;;
1366;SDS011;16877;48.810;9.282;2022-08-03T06:09:10;5.00;;;3.40;;
1366;SDS011;16877;48.810;9.282;2022-08-03T06:11:37;4.70;;;3.43;;
1366;SDS011;16877;48.810;9.282;2022-08-03T06:14:05;3.77;;;3.10;;
1366;SDS011;16877;48.810;9.282;2022-08-03T06:16:33;6.43;;;3.70;;
1366;SDS011;16877;48.810;9.282;2022-08-03T06:19:00;5.63;;;3.57;;
1366;SDS011;16877;48.810;9.282;2022-08-03T06:21:27;5.60;;;3.60;;
1366;SDS011;16877;48.810;9.282;2022-08-03T06:23:54;4.23;;;3.17;;
1366;SDS011;16877;48.810;9.282;2022-08-03T06:26:21;5.53;;;3.87;;
1366;SDS011;16877;48.810;9.282;2022-08-03T06:28:49;5.87;;;3.03;;
1366;SDS011;16877;48.810;9.282;2022-08-03T06:31:16;4.53;;;3.17;;
1366;SDS011;16877;48.810;9.282;2022-08-03T06:33:44;5.30;;;3.40;;
1366;SDS011;16877;48.810;9.282;2022-08-03T06:36:11;4.90;;;3.50;;
1366;SDS011;16877;48.810;9.282;2022-08-03T06:38:38;3.50;;;3.10;;
1366;SDS011;16877;48.810;9.282;2022-08-03T06:41:04;5.00;;;3.20;;
1366;SDS011;16877;48.810;9.282;2022-08-03T06:43:31;6.50;;;3.53;;
1366;SDS011;16877;48.810;9.282;2022-08-03T06:45:59;5.03;;;3.50;;
1366;SDS011;16877;48.810;9.282;2022-08-03T06:48:26;3.37;;;2.90;;
1366;SDS011;16877;48.810;9.282;2022-08-03T06:50:54;3.70;;;3.00;;
1366;SDS011;16877;48.810;9.282;2022-08-03T06:53:21;4.30;;;2.73;;
1366;SDS011;16877;48.810;9.282;2022-08-03T06:55:47;7.57;;;3.30;;
1366;SDS011;16877;48.810;9.282;2022-08-03T06:58:14;4.57;;;3.40;;
1366;SDS011;16877;48.810;9.282;2022-08-03T07:00:41;4.70;;;4.00;;
1366;SDS011;16877;48.810;9.282;2022-08-03T07:03:07;4.70;;;2.93;;
1366;SDS011;16877;48.810;9.282;2022-08-03T07:05:34;5.13;;;3.40;;
1366;SDS011;16877;48.810;9.282;2022-08-03T07:08:02;4.07;;;3.67;;
1366;SDS011;16877;48.810;9.282;2022-08-03T07:10:29;3.80;;;3.13;;
1366;SDS011;16877;48.810;9.282;2022-08-03T07:12:56;4.53;;;3.33;;
1366;SDS011;16877;48.810;9.282;2022-08-03T07:15:22;4.47;;;4.07;;
1366;SDS011;16877;48.810;9.282;2022-08-03T07:17:49;4.47;;;4.07;;
1366;SDS011;16877;48.810;9.282;2022-08-03T07:20:16;4.30;;;3.63;;
1366;SDS011;16877;48.810;9.282;2022-08-03T07:22:43;5.20;;;3.53;;
1366;SDS011;16877;48.810;9.282;2022-08-03T07:25:11;4.97;;;3.93;;
1366;SDS011;16877;48.810;9.282;2022-08-03T07:27:39;4.33;;;3.93;;
1366;SDS011;16877;48.810;9.282;2022-08-03T07:30:09;3.23;;;2.80;;
1366;SDS011;16877;48.810;9.282;2022-08-03T07:32:36;3.87;;;3.33;;
1366;SDS011;16877;48.810;9.282;2022-08-03T07:35:03;4.40;;;3.13;;
1366;SDS011;16877;48.810;9.282;2022-08-03T07:37:31;4.03;;;3.23;;
1366;SDS011;16877;48.810;9.282;2022-08-03T07:39:58;4.87;;;3.60;;
1366;SDS011;16877;48.810;9.282;2022-08-03T07:42:27;7.87;;;4.03;;
1366;SDS011;16877;48.810;9.282;2022-08-03T07:44:54;4.80;;;3.57;;
1366;SDS011;16877;48.810;9.282;2022-08-03T07:47:21;5.00;;;4.00;;
1366;SDS011;16877;48.810;9.282;2022-08-03T07:49:49;7.67;;;3.83;;
1366;SDS011;16877;48.810;9.282;2022-08-03T07:52:16;4.70;;;3.37;;
1366;SDS011;16877;48.810;9.282;2022-08-03T07:55:01;5.10;;;3.33;;
1366;SDS011;16877;48.810;9.282;2022-08-03T07:57:29;3.33;;;2.90;;
1366;SDS011;16877;48.810;9.282;2022-08-03T07:59:55;5.93;;;3.50;;
1366;SDS011;16877;48.810;9.282;2022-08-03T08:02:22;4.43;;;3.20;;
1366;SDS011;16877;48.810;9.282;2022-08-03T08:04:49;7.27;;;3.33;;
1366;SDS011;16877;48.810;9.282;2022-08-03T08:07:15;3.67;;;2.93;;
1366;SDS011;16877;48.810;9.282;2022-08-03T08:09:42;5.00;;;3.33;;
1366;SDS011;16877;48.810;9.282;2022-08-03T08:12:09;3.87;;;3.00;;
1366;SDS011;16877;48.810;9.282;2022-08-03T08:14:38;4.20;;;3.03;;
1366;SDS011;16877;48.810;9.282;2022-08-03T08:17:05;3.77;;;3.00;;
1366;SDS011;16877;48.810;9.282;2022-08-03T08:19:32;5.73;;;3.10;;
1366;SDS011;16877;48.810;9.282;2022-08-03T08:21:59;4.57;;;2.47;;
1366;SDS011;16877;48.810;9.282;2022-08-03T08:24:25;3.53;;;3.20;;
1366;SDS011;16877;48.810;9.282;2022-08-03T08:26:54;3.60;;;2.47;;
1366;SDS011;16877;48.810;9.282;2022-08-03T08:29:20;3.63;;;2.60;;
1366;SDS011;16877;48.810;9.282;2022-08-03T08:31:49;7.60;;;3.47;;
1366;SDS011;16877;48.810;9.282;2022-08-03T08:34:16;2.97;;;2.63;;
1366;SDS011;16877;48.810;9.282;2022-08-03T08:36:42;3.30;;;3.00;;
1366;SDS011;16877;48.810;9.282;2022-08-03T08:39:09;3.93;;;2.60;;
1366;SDS011;16877;48.810;9.282;2022-08-03T08:41:36;3.43;;;2.73;;
1366;SDS011;16877;48.810;9.282;2022-08-03T08:44:03;2.80;;;2.40;;
1366;SDS011;16877;48.810;9.282;2022-08-03T08:46:32;4.63;;;2.57;;
1366;SDS011;16877;48.810;9.282;2022-08-03T08:49:00;2.90;;;2.40;;
1366;SDS011;16877;48.810;9.282;2022-08-03T08:51:28;3.90;;;3.53;;
1366;SDS011;16877;48.810;9.282;2022-08-03T08:53:57;3.20;;;2.60;;
1366;SDS011;16877;48.810;9.282;2022-08-03T08:56:28;4.10;;;2.60;;
1366;SDS011;16877;48.810;9.282;2022-08-03T08:58:57;3.60;;;2.60;;
1366;SDS011;16877;48.810;9.282;2022-08-03T09:01:25;5.50;;;2.80;;
1366;SDS011;16877;48.810;9.282;2022-08-03T09:03:53;5.67;;;3.03;;
1366;SDS011;16877;48.810;9.282;2022-08-03T09:06:21;3.20;;;2.43;;
1366;SDS011;16877;48.810;9.282;2022-08-03T09:08:48;4.70;;;2.73;;
1366;SDS011;16877;48.810;9.282;2022-08-03T09:11:15;3.20;;;2.63;;
1366;SDS011;16877;48.810;9.282;2022-08-03T09:13:46;3.77;;;2.90;;
1366;SDS011;16877;48.810;9.282;2022-08-03T09:16:14;4.40;;;3.07;;
1366;SDS011;16877;48.810;9.282;2022-08-03T09:18:43;3.20;;;2.13;;
1366;SDS011;16877;48.810;9.282;2022-08-03T09:21:14;3.77;;;2.50;;
1366;SDS011;16877;48.810;9.282;2022-08-03T09:23:48;3.80;;;2.30;;
1366;SDS011;16877;48.810;9.282;2022-08-03T09:26:19;3.80;;;2.53;;
1366;SDS011;16877;48.810;9.282;2022-08-03T09:28:53;4.97;;;2.40;;
1366;SDS011;16877;48.810;9.282;2022-08-03T09:31:28;4.13;;;2.40;;
1366;SDS011;16877;48.810;9.282;2022-08-03T09:34:02;2.60;;;1.77;;
1366;SDS011;16877;48.810;9.282;2022-08-03T09:36:33;3.40;;;2.23;;
1366;SDS011;16877;48.810;9.282;2022-08-03T09:39:03;3.60;;;2.30;;
1366;SDS011;16877;48.810;9.282;2022-08-03T09:41:31;2.87;;;1.90;;
1366;SDS011;16877;48.810;9.282;2022-08-03T09:43:58;2.37;;;1.30;;
1366;SDS011;16877;48.810;9.282;2022-08-03T09:46:25;4.00;;;2.10;;
1366;SDS011;16877;48.810;9.282;2022-08-03T09:49:07;4.50;;;1.70;;
1366;SDS011;16877;48.810;9.282;2022-08-03T09:51:35;3.50;;;2.53;;
1366;SDS011;16877;48.810;9.282;2022-08-03T09:54:03;3.07;;;1.60;;
1366;SDS011;16877;48.810;9.282;2022-08-03T09:56:40;2.50;;;1.77;;
1366;SDS011;16877;48.810;9.282;2022-08-03T09:59:08;2.40;;;1.63;;
1366;SDS011;16877;48.810;9.282;2022-08-03T10:01:36;2.60;;;1.80;;
1366;SDS011;16877;48.810;9.282;2022-08-03T10:04:07;4.30;;;2.30;;
1366;SDS011;16877;48.810;9.282;2022-08-03T10:06:39;2.43;;;1.63;;
1366;SDS011;16877;48.810;9.282;2022-08-03T10:09:08;2.50;;;1.60;;
1366;SDS011;16877;48.810;9.282;2022-08-03T10:11:36;3.13;;;2.00;;
1366;SDS011;16877;48.810;9.282;2022-08-03T10:14:04;2.73;;;1.93;;
1366;SDS011;16877;48.810;9.282;2022-08-03T10:16:33;2.90;;;2.03;;
1366;SDS011;16877;48.810;9.282;2022-08-03T10:19:00;2.60;;;1.70;;
1366;SDS011;16877;48.810;9.282;2022-08-03T10:21:29;3.03;;;1.77;;
1366;SDS011;16877;48.810;9.282;2022-08-03T10:24:00;2.80;;;1.90;;
1366;SDS011;16877;48.810;9.282;2022-08-03T10:26:30;2.97;;;1.60;;
1366;SDS011;16877;48.810;9.282;2022-08-03T10:28:58;2.70;;;1.80;;
1366;SDS011;16877;48.810;9.282;2022-08-03T10:31:29;2.83;;;1.80;;
1366;SDS011;16877;48.810;9.282;2022-08-03T10:33:59;2.50;;;1.80;;
1366;SDS011;16877;48.810;9.282;2022-08-03T10:36:29;2.90;;;1.63;;
1366;SDS011;16877;48.810;9.282;2022-08-03T10:38:58;2.40;;;1.93;;
1366;SDS011;16877;48.810;9.282;2022-08-03T10:41:29;2.80;;;2.00;;
1366;SDS011;16877;48.810;9.282;2022-08-03T10:44:02;4.40;;;2.00;;
1366;SDS011;16877;48.810;9.282;2022-08-03T10:46:31;3.00;;;1.77;;
1366;SDS011;16877;48.810;9.282;2022-08-03T10:49:00;4.60;;;2.23;;
1366;SDS011;16877;48.810;9.282;2022-08-03T10:51:27;3.03;;;1.90;;
1366;SDS011;16877;48.810;9.282;2022-08-03T10:53:55;5.60;;;2.00;;
1366;SDS011;16877;48.810;9.282;2022-08-03T10:56:39;2.73;;;2.13;;
1366;SDS011;16877;48.810;9.282;2022-08-03T11:02:23;3.20;;;2.20;;
1366;SDS011;16877;48.810;9.282;2022-08-03T11:05:43;2.60;;;2.07;;
1366;SDS011;16877;48.810;9.282;2022-08-03T11:08:16;2.87;;;2.10;;
1366;SDS011;16877;48.810;9.282;2022-08-03T11:10:52;4.23;;;2.37;;
1366;SDS011;16877;48.810;9.282;2022-08-03T11:13:23;3.47;;;2.07;;
1366;SDS011;16877;48.810;9.282;2022-08-03T11:15:52;6.50;;;2.80;;
1366;SDS011;16877;48.810;9.282;2022-08-03T11:18:21;3.20;;;2.37;;
1366;SDS011;16877;48.810;9.282;2022-08-03T11:20:49;3.17;;;2.10;;
1366;SDS011;16877;48.810;9.282;2022-08-03T11:23:18;3.80;;;2.00;;
1366;SDS011;16877;48.810;9.282;2022-08-03T11:28:37;3.63;;;2.07;;
1366;SDS011;16877;48.810;9.282;2022-08-03T11:34:10;2.83;;;1.80;;
1366;SDS011;16877;48.810;9.282;2022-08-03T11:39:38;2.60;;;1.83;;
1366;SDS011;16877;48.810;9.282;2022-08-03T11:45:07;3.10;;;1.90;;
1366;SDS011;16877;48.810;9.282;2022-08-03T11:47:36;3.60;;;2.40;;
1366;SDS011;16877;48.810;9.282;2022-08-03T11:50:04;3.23;;;2.37;;
1366;SDS011;16877;48.810;9.282;2022-08-03T11:52:35;2.93;;;2.30;;
1366;SDS011;16877;48.810;9.282;2022-08-03T11:55:07;2.80;;;2.10;;
1366;SDS011;16877;48.810;9.282;2022-08-03T11:57:38;2.67;;;2.10;;
1366;SDS011;16877;48.810;9.282;2022-08-03T12:00:25;2.60;;;1.80;;
1366;SDS011;16877;48.810;9.282;2022-08-03T12:03:04;2.90;;;2.30;;
1366;SDS011;16877;48.810;9.282;2022-08-03T12:05:35;2.57;;;1.90;;
1366;SDS011;16877;48.810;9.282;2022-08-03T12:08:07;3.70;;;2.00;;
1366;SDS011;16877;48.810;9.282;2022-08-03T12:10:35;2.93;;;2.03;;
1366;SDS011;16877;48.810;9.282;2022-08-03T12:13:03;3.37;;;2.47;;
1366;SDS011;16877;48.810;9.282;2022-08-03T12:15:34;3.00;;;2.17;;
1366;SDS011;16877;48.810;9.282;2022-08-03T12:18:02;2.60;;;1.90;;
1366;SDS011;16877;48.810;9.282;2022-08-03T12:20:37;5.57;;;1.93;;
1366;SDS011;16877;48.810;9.282;2022-08-03T12:23:04;2.50;;;2.00;;
1366;SDS011;16877;48.810;9.282;2022-08-03T12:25:32;2.80;;;1.93;;
1366;SDS011;16877;48.810;9.282;2022-08-03T12:28:07;3.63;;;1.80;;
1366;SDS011;16877;48.810;9.282;2022-08-03T12:30:37;4.10;;;2.33;;
1366;SDS011;16877;48.810;9.282;2022-08-03T12:33:11;3.00;;;2.25;;
1366;SDS011;16877;48.810;9.282;2022-08-03T12:35:43;3.30;;;1.90;;
1366;SDS011;16877;48.810;9.282;2022-08-03T12:38:10;3.20;;;2.30;;
1366;SDS011;16877;48.810;9.282;2022-08-03T12:40:37;3.57;;;2.20;;
1366;SDS011;16877;48.810;9.282;2022-08-03T12:43:11;3.43;;;2.20;;
1366;SDS011;16877;48.810;9.282;2022-08-03T12:45:39;2.93;;;2.20;;
1366;SDS011;16877;48.810;9.282;2022-08-03T12:48:09;3.17;;;1.80;;
1366;SDS011;16877;48.810;9.282;2022-08-03T12:50:37;2.90;;;2.00;;
1366;SDS011;16877;48.810;9.282;2022-08-03T12:53:05;3.43;;;2.10;;
1366;SDS011;16877;48.810;9.282;2022-08-03T12:55:33;2.53;;;1.80;;
1366;SDS011;16877;48.810;9.282;2022-08-03T12:58:00;2.50;;;1.83;;
1366;SDS011;16877;48.810;9.282;2022-08-03T13:00:28;2.90;;;2.20;;
1366;SDS011;16877;48.810;9.282;2022-08-03T13:02:59;2.90;;;2.20;;
1366;SDS011;16877;48.810;9.282;2022-08-03T13:05:28;5.13;;;2.00;;
1366;SDS011;16877;48.810;9.282;2022-08-03T13:07:55;5.23;;;2.17;;
1366;SDS011;16877;48.810;9.282;2022-08-03T13:10:26;2.70;;;2.10;;
1366;SDS011;16877;48.810;9.282;2022-08-03T13:12:55;3.23;;;1.70;;
1366;SDS011;16877;48.810;9.282;2022-08-03T13:15:24;2.90;;;1.80;;
1366;SDS011;16877;48.810;9.282;2022-08-03T13:17:52;3.60;;;1.90;;
1366;SDS011;16877;48.810;9.282;2022-08-03T13:20:20;2.63;;;1.80;;
1366;SDS011;16877;48.810;9.282;2022-08-03T13:22:47;2.60;;;1.88;;
1366;SDS011;16877;48.810;9.282;2022-08-03T13:25:14;4.35;;;2.25;;
1366;SDS011;16877;48.810;9.282;2022-08-03T13:27:41;3.03;;;1.92;;
1366;SDS011;16877;48.810;9.282;2022-08-03T13:30:08;3.88;;;2.03;;
1366;SDS011;16877;48.810;9.282;2022-08-03T13:32:35;4.78;;;2.10;;
1366;SDS011;16877;48.810;9.282;2022-08-03T13:35:02;2.60;;;1.85;;
1366;SDS011;16877;48.810;9.282;2022-08-03T13:37:31;2.60;;;1.60;;
1366;SDS011;16877;48.810;9.282;2022-08-03T13:39:57;4.03;;;2.00;;
1366;SDS011;16877;48.810;9.282;2022-08-03T13:42:24;3.42;;;1.98;;
1366;SDS011;16877;48.810;9.282;2022-08-03T13:44:51;2.58;;;2.08;;
1366;SDS011;16877;48.810;9.282;2022-08-03T13:47:18;2.60;;;1.85;;
1366;SDS011;16877;48.810;9.282;2022-08-03T13:49:45;3.08;;;1.90;;
1366;SDS011;16877;48.810;9.282;2022-08-03T13:52:12;3.55;;;2.63;;
1366;SDS011;16877;48.810;9.282;2022-08-03T13:54:40;3.40;;;2.10;;
1366;SDS011;16877;48.810;9.282;2022-08-03T13:57:06;3.00;;;2.15;;
1366;SDS011;16877;48.810;9.282;2022-08-03T13:59:35;3.65;;;2.17;;
1366;SDS011;16877;48.810;9.282;2022-08-03T14:02:02;2.83;;;1.50;;
1366;SDS011;16877;48.810;9.282;2022-08-03T14:04:29;3.13;;;1.70;;
1366;SDS011;16877;48.810;9.282;2022-08-03T14:06:56;2.53;;;1.83;;
1366;SDS011;16877;48.810;9.282;2022-08-03T14:09:22;3.63;;;2.20;;
1366;SDS011;16877;48.810;9.282;2022-08-03T14:11:50;3.20;;;1.95;;
1366;SDS011;16877;48.810;9.282;2022-08-03T14:14:17;2.60;;;2.00;;
1366;SDS011;16877;48.810;9.282;2022-08-03T14:16:44;2.88;;;2.00;;
1366;SDS011;16877;48.810;9.282;2022-08-03T14:19:10;2.65;;;1.77;;
1366;SDS011;16877;48.810;9.282;2022-08-03T14:21:37;3.92;;;2.03;;
1366;SDS011;16877;48.810;9.282;2022-08-03T14:24:04;2.90;;;2.00;;
1366;SDS011;16877;48.810;9.282;2022-08-03T14:26:31;3.13;;;1.98;;
1366;SDS011;16877;48.810;9.282;2022-08-03T14:28:59;3.70;;;1.90;;
1366;SDS011;16877;48.810;9.282;2022-08-03T14:31:26;3.20;;;1.90;;
1366;SDS011;16877;48.810;9.282;2022-08-03T14:33:53;3.75;;;2.10;;
1366;SDS011;16877;48.810;9.282;2022-08-03T14:36:19;3.50;;;2.08;;
1366;SDS011;16877;48.810;9.282;2022-08-03T14:38:46;4.43;;;2.00;;
1366;SDS011;16877;48.810;9.282;2022-08-03T14:41:12;3.30;;;1.70;;
1366;SDS011;16877;48.810;9.282;2022-08-03T14:43:39;2.63;;;1.40;;
1366;SDS011;16877;48.810;9.282;2022-08-03T14:46:07;3.45;;;1.70;;
1366;SDS011;16877;48.810;9.282;2022-08-03T14:48:34;2.70;;;1.92;;
1366;SDS011;16877;48.810;9.282;2022-08-03T14:51:01;2.45;;;1.77;;
1366;SDS011;16877;48.810;9.282;2022-08-03T14:53:29;2.63;;;2.10;;
1366;SDS011;16877;48.810;9.282;2022-08-03T14:55:56;2.65;;;1.88;;
1366;SDS011;16877;48.810;9.282;2022-08-03T14:58:23;2.78;;;1.75;;
1366;SDS011;16877;48.810;9.282;2022-08-03T15:00:51;3.75;;;1.95;;
1366;SDS011;16877;48.810;9.282;2022-08-03T15:03:21;3.78;;;1.60;;
1366;SDS011;16877;48.810;9.282;2022-08-03T15:05:48;2.30;;;1.60;;
1366;SDS011;16877;48.810;9.282;2022-08-03T15:08:15;3.45;;;2.17;;
1366;SDS011;16877;48.810;9.282;2022-08-03T15:10:42;4.07;;;1.90;;
1366;SDS011;16877;48.810;9.282;2022-08-03T15:13:09;2.88;;;2.25;;
1366;SDS011;16877;48.810;9.282;2022-08-03T15:15:35;2.80;;;1.50;;
1366;SDS011;16877;48.810;9.282;2022-08-03T15:18:02;2.60;;;1.70;;
1366;SDS011;16877;48.810;9.282;2022-08-03T15:20:30;2.47;;;1.65;;
1366;SDS011;16877;48.810;9.282;2022-08-03T15:22:57;2.40;;;1.55;;
1366;SDS011;16877;48.810;9.282;2022-08-03T15:25:24;2.50;;;1.60;;
1366;SDS011;16877;48.810;9.282;2022-08-03T15:27:50;2.50;;;1.77;;